sensor_id;sensor_type;location;lat;lon;timestamp;temperature;humidity
80192;SHT31;69513;51.990;5.704;2023-07-08T00:00:57;22.3;49.2
80192;SHT31;69513;51.990;5.704;2023-07-08T00:03:26;22.3;49.8
80192;SHT31;69513;51.990;5.704;2023-07-08T00:05:56;22.3;50.0
80192;SHT31;69513;51.990;5.704;2023-07-08T00:08:26;22.3;49.7
80192;SHT31;69513;51.990;5.704;2023-07-08T00:10:57;22.3;49.5
80192;SHT31;69513;51.990;5.704;2023-07-08T00:13:28;22.2;49.9
80192;SHT31;69513;51.990;5.704;2023-07-08T00:15:58;22.2;49.4
80192;SHT31;69513;51.990;5.704;2023-07-08T00:18:28;22.2;49.7
80192;SHT31;69513;51.990;5.704;2023-07-08T00:20:57;22.2;50.1
80192;SHT31;69513;51.990;5.704;2023-07-08T00:23:28;22.1;50.3
80192;SHT31;69513;51.990;5.704;2023-07-08T00:25:58;22.1;50.1
80192;SHT31;69513;51.990;5.704;2023-07-08T00:28:29;22.1;49.9
80192;SHT31;69513;51.990;5.704;2023-07-08T00:30:58;22.1;49.8
80192;SHT31;69513;51.990;5.704;2023-07-08T00:33:28;22.1;50.3
80192;SHT31;69513;51.990;5.704;2023-07-08T00:35:57;22.1;50.8
80192;SHT31;69513;51.990;5.704;2023-07-08T00:38:28;22.0;50.3
80192;SHT31;69513;51.990;5.704;2023-07-08T00:41:09;22.0;49.7
80192;SHT31;69513;51.990;5.704;2023-07-08T00:43:46;22.0;50.0
80192;SHT31;69513;51.990;5.704;2023-07-08T00:46:33;22.0;49.6
80192;SHT31;69513;51.990;5.704;2023-07-08T00:49:17;22.0;50.0
80192;SHT31;69513;51.990;5.704;2023-07-08T00:51:52;21.9;50.2
80192;SHT31;69513;51.990;5.704;2023-07-08T00:54:22;21.9;49.2
80192;SHT31;69513;51.990;5.704;2023-07-08T00:56:56;21.9;50.4
80192;SHT31;69513;51.990;5.704;2023-07-08T00:59:31;21.9;50.4
80192;SHT31;69513;51.990;5.704;2023-07-08T01:02:08;21.8;50.3
80192;SHT31;69513;51.990;5.704;2023-07-08T01:04:48;21.8;50.5
80192;SHT31;69513;51.990;5.704;2023-07-08T01:07:21;21.8;50.4
80192;SHT31;69513;51.990;5.704;2023-07-08T01:09:57;21.7;50.3
80192;SHT31;69513;51.990;5.704;2023-07-08T01:12:35;21.7;50.1
80192;SHT31;69513;51.990;5.704;2023-07-08T01:15:12;21.7;50.2
80192;SHT31;69513;51.990;5.704;2023-07-08T01:17:44;21.6;50.0
80192;SHT31;69513;51.990;5.704;2023-07-08T01:20:20;21.6;50.3
80192;SHT31;69513;51.990;5.704;2023-07-08T01:22:49;21.6;50.2
80192;SHT31;69513;51.990;5.704;2023-07-08T01:25:20;21.6;50.7
80192;SHT31;69513;51.990;5.704;2023-07-08T01:27:57;21.5;50.8
80192;SHT31;69513;51.990;5.704;2023-07-08T01:30:29;21.5;51.0
80192;SHT31;69513;51.990;5.704;2023-07-08T01:33:04;21.5;50.8
80192;SHT31;69513;51.990;5.704;2023-07-08T01:35:38;21.5;51.4
80192;SHT31;69513;51.990;5.704;2023-07-08T01:38:10;21.5;51.0
80192;SHT31;69513;51.990;5.704;2023-07-08T01:40:49;21.4;51.3
80192;SHT31;69513;51.990;5.704;2023-07-08T01:43:20;21.4;51.5
80192;SHT31;69513;51.990;5.704;2023-07-08T01:45:53;21.4;51.7
80192;SHT31;69513;51.990;5.704;2023-07-08T01:48:29;21.4;51.8
80192;SHT31;69513;51.990;5.704;2023-07-08T01:51:04;21.3;51.3
80192;SHT31;69513;51.990;5.704;2023-07-08T01:53:38;21.3;51.4
80192;SHT31;69513;51.990;5.704;2023-07-08T01:56:13;21.3;51.3
80192;SHT31;69513;51.990;5.704;2023-07-08T01:58:44;21.3;50.7
80192;SHT31;69513;51.990;5.704;2023-07-08T02:01:16;21.2;51.3
80192;SHT31;69513;51.990;5.704;2023-07-08T02:03:46;21.2;51.7
80192;SHT31;69513;51.990;5.704;2023-07-08T02:06:18;21.2;51.5
80192;SHT31;69513;51.990;5.704;2023-07-08T02:08:49;21.2;51.7
80192;SHT31;69513;51.990;5.704;2023-07-08T02:11:24;21.1;51.9
80192;SHT31;69513;51.990;5.704;2023-07-08T02:13:56;21.1;52.0
80192;SHT31;69513;51.990;5.704;2023-07-08T02:16:27;21.1;52.1
80192;SHT31;69513;51.990;5.704;2023-07-08T02:18:57;21.1;51.6
80192;SHT31;69513;51.990;5.704;2023-07-08T02:21:27;21.1;52.0
80192;SHT31;69513;51.990;5.704;2023-07-08T02:23:58;21.0;52.2
80192;SHT31;69513;51.990;5.704;2023-07-08T02:26:28;21.0;52.7
80192;SHT31;69513;51.990;5.704;2023-07-08T02:29:00;21.0;53.1
80192;SHT31;69513;51.990;5.704;2023-07-08T02:31:33;21.0;52.5
80192;SHT31;69513;51.990;5.704;2023-07-08T02:34:03;20.9;52.7
80192;SHT31;69513;51.990;5.704;2023-07-08T02:36:35;20.9;52.8
80192;SHT31;69513;51.990;5.704;2023-07-08T02:39:06;20.9;53.1
80192;SHT31;69513;51.990;5.704;2023-07-08T02:41:37;20.9;52.9
80192;SHT31;69513;51.990;5.704;2023-07-08T02:44:07;20.9;52.7
80192;SHT31;69513;51.990;5.704;2023-07-08T02:46:37;20.8;53.4
80192;SHT31;69513;51.990;5.704;2023-07-08T02:49:07;20.8;53.3
80192;SHT31;69513;51.990;5.704;2023-07-08T02:51:37;20.8;53.7
80192;SHT31;69513;51.990;5.704;2023-07-08T02:54:06;20.8;54.0
80192;SHT31;69513;51.990;5.704;2023-07-08T02:56:37;20.8;53.4
80192;SHT31;69513;51.990;5.704;2023-07-08T02:59:07;20.8;53.5
80192;SHT31;69513;51.990;5.704;2023-07-08T03:01:38;20.8;54.2
80192;SHT31;69513;51.990;5.704;2023-07-08T03:04:12;20.7;54.1
80192;SHT31;69513;51.990;5.704;2023-07-08T03:06:44;20.7;54.1
80192;SHT31;69513;51.990;5.704;2023-07-08T03:09:14;20.7;53.8
80192;SHT31;69513;51.990;5.704;2023-07-08T03:11:44;20.7;54.2
80192;SHT31;69513;51.990;5.704;2023-07-08T03:14:14;20.7;53.8
80192;SHT31;69513;51.990;5.704;2023-07-08T03:16:44;20.7;54.1
80192;SHT31;69513;51.990;5.704;2023-07-08T03:19:14;20.7;54.3
80192;SHT31;69513;51.990;5.704;2023-07-08T03:21:44;20.6;54.0
80192;SHT31;69513;51.990;5.704;2023-07-08T03:24:14;20.6;54.1
80192;SHT31;69513;51.990;5.704;2023-07-08T03:26:47;20.6;54.4
80192;SHT31;69513;51.990;5.704;2023-07-08T03:29:21;20.6;53.9
80192;SHT31;69513;51.990;5.704;2023-07-08T03:31:51;20.6;55.2
80192;SHT31;69513;51.990;5.704;2023-07-08T03:34:20;20.5;54.8
80192;SHT31;69513;51.990;5.704;2023-07-08T03:36:52;20.5;54.7
80192;SHT31;69513;51.990;5.704;2023-07-08T03:39:24;20.5;55.3
80192;SHT31;69513;51.990;5.704;2023-07-08T03:41:55;20.5;54.8
80192;SHT31;69513;51.990;5.704;2023-07-08T03:44:24;20.5;54.7
80192;SHT31;69513;51.990;5.704;2023-07-08T03:46:55;20.5;54.9
80192;SHT31;69513;51.990;5.704;2023-07-08T03:49:27;20.5;55.0
80192;SHT31;69513;51.990;5.704;2023-07-08T03:51:57;20.4;54.9
80192;SHT31;69513;51.990;5.704;2023-07-08T03:54:27;20.4;54.6
80192;SHT31;69513;51.990;5.704;2023-07-08T03:56:56;20.4;55.3
80192;SHT31;69513;51.990;5.704;2023-07-08T03:59:26;20.4;55.7
80192;SHT31;69513;51.990;5.704;2023-07-08T04:01:56;20.4;55.3
80192;SHT31;69513;51.990;5.704;2023-07-08T04:04:26;20.4;55.7
80192;SHT31;69513;51.990;5.704;2023-07-08T04:06:56;20.4;55.8
80192;SHT31;69513;51.990;5.704;2023-07-08T04:09:26;20.4;55.5
80192;SHT31;69513;51.990;5.704;2023-07-08T04:11:56;20.3;55.5
80192;SHT31;69513;51.990;5.704;2023-07-08T04:14:27;20.3;55.8
80192;SHT31;69513;51.990;5.704;2023-07-08T04:16:59;20.3;56.0
80192;SHT31;69513;51.990;5.704;2023-07-08T04:19:29;20.3;56.1
80192;SHT31;69513;51.990;5.704;2023-07-08T04:22:02;20.3;56.1
80192;SHT31;69513;51.990;5.704;2023-07-08T04:24:34;20.3;56.4
80192;SHT31;69513;51.990;5.704;2023-07-08T04:27:04;20.3;56.1
80192;SHT31;69513;51.990;5.704;2023-07-08T04:29:34;20.3;56.2
80192;SHT31;69513;51.990;5.704;2023-07-08T04:32:07;20.3;56.6
80192;SHT31;69513;51.990;5.704;2023-07-08T04:34:37;20.3;56.5
80192;SHT31;69513;51.990;5.704;2023-07-08T04:37:09;20.3;56.4
80192;SHT31;69513;51.990;5.704;2023-07-08T04:39:40;20.3;56.7
80192;SHT31;69513;51.990;5.704;2023-07-08T04:42:10;20.3;56.6
80192;SHT31;69513;51.990;5.704;2023-07-08T04:44:42;20.3;56.7
80192;SHT31;69513;51.990;5.704;2023-07-08T04:47:13;20.2;56.9
80192;SHT31;69513;51.990;5.704;2023-07-08T04:49:44;20.2;56.6
80192;SHT31;69513;51.990;5.704;2023-07-08T04:52:15;20.2;56.9
80192;SHT31;69513;51.990;5.704;2023-07-08T04:54:45;20.3;57.2
80192;SHT31;69513;51.990;5.704;2023-07-08T04:57:17;20.3;56.9
80192;SHT31;69513;51.990;5.704;2023-07-08T04:59:48;20.3;57.2
80192;SHT31;69513;51.990;5.704;2023-07-08T05:02:18;20.3;57.2
80192;SHT31;69513;51.990;5.704;2023-07-08T05:04:48;20.3;57.3
80192;SHT31;69513;51.990;5.704;2023-07-08T05:07:18;20.3;57.5
80192;SHT31;69513;51.990;5.704;2023-07-08T05:09:47;20.3;57.6
80192;SHT31;69513;51.990;5.704;2023-07-08T05:12:17;20.3;57.6
80192;SHT31;69513;51.990;5.704;2023-07-08T05:14:47;20.3;57.9
80192;SHT31;69513;51.990;5.704;2023-07-08T05:17:17;20.3;57.9
80192;SHT31;69513;51.990;5.704;2023-07-08T05:19:47;20.3;57.9
80192;SHT31;69513;51.990;5.704;2023-07-08T05:22:21;20.3;57.7
80192;SHT31;69513;51.990;5.704;2023-07-08T05:24:54;20.3;57.9
80192;SHT31;69513;51.990;5.704;2023-07-08T05:27:26;20.4;58.0
80192;SHT31;69513;51.990;5.704;2023-07-08T05:29:59;20.4;58.1
80192;SHT31;69513;51.990;5.704;2023-07-08T05:32:29;20.4;58.3
80192;SHT31;69513;51.990;5.704;2023-07-08T05:35:00;20.4;58.6
80192;SHT31;69513;51.990;5.704;2023-07-08T05:37:30;20.4;58.6
80192;SHT31;69513;51.990;5.704;2023-07-08T05:40:06;20.5;58.3
80192;SHT31;69513;51.990;5.704;2023-07-08T05:42:36;20.5;58.5
80192;SHT31;69513;51.990;5.704;2023-07-08T05:45:08;20.5;58.3
80192;SHT31;69513;51.990;5.704;2023-07-08T05:47:41;20.5;58.3
80192;SHT31;69513;51.990;5.704;2023-07-08T05:50:11;20.6;58.1
80192;SHT31;69513;51.990;5.704;2023-07-08T05:52:43;20.6;58.5
80192;SHT31;69513;51.990;5.704;2023-07-08T05:55:12;20.6;58.3
80192;SHT31;69513;51.990;5.704;2023-07-08T05:57:43;20.7;58.4
80192;SHT31;69513;51.990;5.704;2023-07-08T06:00:16;20.7;58.1
80192;SHT31;69513;51.990;5.704;2023-07-08T06:02:47;20.7;58.0
80192;SHT31;69513;51.990;5.704;2023-07-08T06:05:20;20.8;58.4
80192;SHT31;69513;51.990;5.704;2023-07-08T06:07:49;20.8;58.1
80192;SHT31;69513;51.990;5.704;2023-07-08T06:10:19;20.9;58.2
80192;SHT31;69513;51.990;5.704;2023-07-08T06:12:50;20.9;58.0
80192;SHT31;69513;51.990;5.704;2023-07-08T06:15:20;20.9;57.5
80192;SHT31;69513;51.990;5.704;2023-07-08T06:17:50;21.0;57.3
80192;SHT31;69513;51.990;5.704;2023-07-08T06:20:21;21.0;56.7
80192;SHT31;69513;51.990;5.704;2023-07-08T06:22:51;21.1;56.7
80192;SHT31;69513;51.990;5.704;2023-07-08T06:25:23;21.1;56.9
80192;SHT31;69513;51.990;5.704;2023-07-08T06:27:53;21.2;56.6
80192;SHT31;69513;51.990;5.704;2023-07-08T06:30:24;21.2;55.9
80192;SHT31;69513;51.990;5.704;2023-07-08T06:32:54;21.3;56.2
80192;SHT31;69513;51.990;5.704;2023-07-08T06:35:25;21.3;56.0
80192;SHT31;69513;51.990;5.704;2023-07-08T06:37:55;21.4;55.1
80192;SHT31;69513;51.990;5.704;2023-07-08T06:40:25;21.5;55.0
80192;SHT31;69513;51.990;5.704;2023-07-08T06:42:55;21.5;55.0
80192;SHT31;69513;51.990;5.704;2023-07-08T06:45:24;21.5;54.7
80192;SHT31;69513;51.990;5.704;2023-07-08T06:47:54;21.6;54.7
80192;SHT31;69513;51.990;5.704;2023-07-08T06:50:24;21.7;54.5
80192;SHT31;69513;51.990;5.704;2023-07-08T06:52:54;21.7;54.4
80192;SHT31;69513;51.990;5.704;2023-07-08T06:55:23;21.8;54.4
80192;SHT31;69513;51.990;5.704;2023-07-08T06:57:53;21.8;54.8
80192;SHT31;69513;51.990;5.704;2023-07-08T07:00:23;21.9;54.3
80192;SHT31;69513;51.990;5.704;2023-07-08T07:02:54;21.9;55.1
80192;SHT31;69513;51.990;5.704;2023-07-08T07:05:23;22.0;54.2
80192;SHT31;69513;51.990;5.704;2023-07-08T07:07:53;22.0;53.6
80192;SHT31;69513;51.990;5.704;2023-07-08T07:10:24;22.1;53.3
80192;SHT31;69513;51.990;5.704;2023-07-08T07:12:54;22.1;52.8
80192;SHT31;69513;51.990;5.704;2023-07-08T07:15:23;22.2;52.8
80192;SHT31;69513;51.990;5.704;2023-07-08T07:17:57;22.2;52.5
80192;SHT31;69513;51.990;5.704;2023-07-08T07:20:28;22.3;52.2
80192;SHT31;69513;51.990;5.704;2023-07-08T07:22:59;22.3;52.3
80192;SHT31;69513;51.990;5.704;2023-07-08T07:25:29;22.4;51.6
80192;SHT31;69513;51.990;5.704;2023-07-08T07:27:59;22.4;51.9
80192;SHT31;69513;51.990;5.704;2023-07-08T07:30:29;22.5;52.4
80192;SHT31;69513;51.990;5.704;2023-07-08T07:33:01;22.5;51.9
80192;SHT31;69513;51.990;5.704;2023-07-08T07:35:31;22.6;51.4
80192;SHT31;69513;51.990;5.704;2023-07-08T07:38:01;22.6;51.6
80192;SHT31;69513;51.990;5.704;2023-07-08T07:40:34;22.7;51.7
80192;SHT31;69513;51.990;5.704;2023-07-08T07:43:04;22.7;52.1
80192;SHT31;69513;51.990;5.704;2023-07-08T07:45:35;22.8;51.8
80192;SHT31;69513;51.990;5.704;2023-07-08T07:48:06;22.8;51.7
80192;SHT31;69513;51.990;5.704;2023-07-08T07:50:37;22.9;52.3
80192;SHT31;69513;51.990;5.704;2023-07-08T07:53:07;22.9;51.5
80192;SHT31;69513;51.990;5.704;2023-07-08T07:55:38;23.0;51.8
80192;SHT31;69513;51.990;5.704;2023-07-08T07:58:07;23.0;53.0
80192;SHT31;69513;51.990;5.704;2023-07-08T08:00:40;23.1;51.8
80192;SHT31;69513;51.990;5.704;2023-07-08T08:03:10;23.2;51.7
80192;SHT31;69513;51.990;5.704;2023-07-08T08:05:40;23.2;51.2
80192;SHT31;69513;51.990;5.704;2023-07-08T08:08:10;23.3;51.2
80192;SHT31;69513;51.990;5.704;2023-07-08T08:10:39;23.3;51.2
80192;SHT31;69513;51.990;5.704;2023-07-08T08:13:10;23.4;50.8
80192;SHT31;69513;51.990;5.704;2023-07-08T08:15:40;23.4;50.8
80192;SHT31;69513;51.990;5.704;2023-07-08T08:18:11;23.5;51.4
80192;SHT31;69513;51.990;5.704;2023-07-08T08:20:41;23.5;50.9
80192;SHT31;69513;51.990;5.704;2023-07-08T08:23:11;23.6;50.4
80192;SHT31;69513;51.990;5.704;2023-07-08T08:25:41;23.6;50.7
80192;SHT31;69513;51.990;5.704;2023-07-08T08:28:11;23.7;50.7
80192;SHT31;69513;51.990;5.704;2023-07-08T08:30:40;23.7;50.3
80192;SHT31;69513;51.990;5.704;2023-07-08T08:33:12;23.8;50.2
80192;SHT31;69513;51.990;5.704;2023-07-08T08:35:42;23.8;50.7
80192;SHT31;69513;51.990;5.704;2023-07-08T08:38:13;23.9;50.3
80192;SHT31;69513;51.990;5.704;2023-07-08T08:40:46;24.0;51.1
80192;SHT31;69513;51.990;5.704;2023-07-08T08:43:27;24.0;51.3
80192;SHT31;69513;51.990;5.704;2023-07-08T08:46:05;24.1;51.1
80192;SHT31;69513;51.990;5.704;2023-07-08T08:48:46;24.2;51.4
80192;SHT31;69513;51.990;5.704;2023-07-08T08:51:20;24.2;50.9
80192;SHT31;69513;51.990;5.704;2023-07-08T08:53:53;24.3;51.5
80192;SHT31;69513;51.990;5.704;2023-07-08T08:56:29;24.4;51.2
80192;SHT31;69513;51.990;5.704;2023-07-08T08:59:17;24.4;51.2
80192;SHT31;69513;51.990;5.704;2023-07-08T09:01:43;24.5;51.0
80192;SHT31;69513;51.990;5.704;2023-07-08T09:04:22;24.5;51.2
80192;SHT31;69513;51.990;5.704;2023-07-08T09:07:01;24.6;51.9
80192;SHT31;69513;51.990;5.704;2023-07-08T09:09:38;24.7;51.4
80192;SHT31;69513;51.990;5.704;2023-07-08T09:12:20;24.7;51.8
80192;SHT31;69513;51.990;5.704;2023-07-08T09:14:56;24.8;50.9
80192;SHT31;69513;51.990;5.704;2023-07-08T09:17:37;24.9;50.5
80192;SHT31;69513;51.990;5.704;2023-07-08T09:20:21;25.0;50.9
80192;SHT31;69513;51.990;5.704;2023-07-08T09:23:01;25.0;50.6
80192;SHT31;69513;51.990;5.704;2023-07-08T09:25:39;25.1;50.0
80192;SHT31;69513;51.990;5.704;2023-07-08T09:28:13;25.2;49.8
80192;SHT31;69513;51.990;5.704;2023-07-08T09:30:47;25.2;49.6
80192;SHT31;69513;51.990;5.704;2023-07-08T09:33:17;25.3;49.8
80192;SHT31;69513;51.990;5.704;2023-07-08T09:35:49;25.4;50.1
80192;SHT31;69513;51.990;5.704;2023-07-08T09:38:25;25.4;49.6
80192;SHT31;69513;51.990;5.704;2023-07-08T09:40:56;25.5;49.9
80192;SHT31;69513;51.990;5.704;2023-07-08T09:43:37;25.6;49.7
80192;SHT31;69513;51.990;5.704;2023-07-08T09:46:12;25.6;50.0
80192;SHT31;69513;51.990;5.704;2023-07-08T09:48:44;25.7;49.3
80192;SHT31;69513;51.990;5.704;2023-07-08T09:51:16;25.8;48.6
80192;SHT31;69513;51.990;5.704;2023-07-08T09:53:45;25.9;48.6
80192;SHT31;69513;51.990;5.704;2023-07-08T09:56:15;25.9;49.1
80192;SHT31;69513;51.990;5.704;2023-07-08T09:58:45;26.0;48.8
80192;SHT31;69513;51.990;5.704;2023-07-08T10:01:23;26.1;48.1
80192;SHT31;69513;51.990;5.704;2023-07-08T10:03:58;26.1;47.8
80192;SHT31;69513;51.990;5.704;2023-07-08T10:06:35;26.2;47.8
80192;SHT31;69513;51.990;5.704;2023-07-08T10:09:12;26.3;48.3
80192;SHT31;69513;51.990;5.704;2023-07-08T10:11:50;26.4;48.0
80192;SHT31;69513;51.990;5.704;2023-07-08T10:14:26;26.4;48.1
80192;SHT31;69513;51.990;5.704;2023-07-08T10:16:57;26.5;47.5
80192;SHT31;69513;51.990;5.704;2023-07-08T10:19:28;26.6;47.6
80192;SHT31;69513;51.990;5.704;2023-07-08T10:22:19;26.7;46.9
80192;SHT31;69513;51.990;5.704;2023-07-08T10:25:06;26.8;47.1
80192;SHT31;69513;51.990;5.704;2023-07-08T10:27:44;26.9;46.3
80192;SHT31;69513;51.990;5.704;2023-07-08T10:30:20;27.0;46.3
80192;SHT31;69513;51.990;5.704;2023-07-08T10:33:17;27.1;46.1
80192;SHT31;69513;51.990;5.704;2023-07-08T10:36:02;27.2;45.9
80192;SHT31;69513;51.990;5.704;2023-07-08T10:38:50;27.3;46.1
80192;SHT31;69513;51.990;5.704;2023-07-08T10:41:34;27.4;46.5
80192;SHT31;69513;51.990;5.704;2023-07-08T10:44:15;27.5;45.5
80192;SHT31;69513;51.990;5.704;2023-07-08T10:46:58;27.6;45.3
80192;SHT31;69513;51.990;5.704;2023-07-08T10:49:44;27.7;44.8
80192;SHT31;69513;51.990;5.704;2023-07-08T10:52:31;27.8;44.0
80192;SHT31;69513;51.990;5.704;2023-07-08T10:55:29;27.9;43.5
80192;SHT31;69513;51.990;5.704;2023-07-08T10:58:24;28.0;44.2
80192;SHT31;69513;51.990;5.704;2023-07-08T11:01:05;28.1;44.0
80192;SHT31;69513;51.990;5.704;2023-07-08T11:04:16;28.2;43.7
80192;SHT31;69513;51.990;5.704;2023-07-08T11:06:55;28.3;44.1
80192;SHT31;69513;51.990;5.704;2023-07-08T11:09:35;28.4;42.5
80192;SHT31;69513;51.990;5.704;2023-07-08T11:12:17;28.5;42.1
80192;SHT31;69513;51.990;5.704;2023-07-08T11:14:59;28.6;42.7
80192;SHT31;69513;51.990;5.704;2023-07-08T11:17:41;28.7;42.5
80192;SHT31;69513;51.990;5.704;2023-07-08T11:20:21;28.9;41.6
80192;SHT31;69513;51.990;5.704;2023-07-08T11:22:59;29.0;41.8
80192;SHT31;69513;51.990;5.704;2023-07-08T11:25:32;29.1;41.8
80192;SHT31;69513;51.990;5.704;2023-07-08T11:28:06;29.3;41.3
80192;SHT31;69513;51.990;5.704;2023-07-08T11:30:42;29.4;40.9
80192;SHT31;69513;51.990;5.704;2023-07-08T11:33:14;29.5;40.7
80192;SHT31;69513;51.990;5.704;2023-07-08T11:35:51;29.6;39.4
80192;SHT31;69513;51.990;5.704;2023-07-08T11:38:25;29.8;39.7
80192;SHT31;69513;51.990;5.704;2023-07-08T11:40:59;29.9;40.2
80192;SHT31;69513;51.990;5.704;2023-07-08T11:43:40;30.0;38.9
80192;SHT31;69513;51.990;5.704;2023-07-08T11:46:17;30.1;37.4
80192;SHT31;69513;51.990;5.704;2023-07-08T11:48:51;30.2;37.2
80192;SHT31;69513;51.990;5.704;2023-07-08T11:51:24;30.4;37.8
80192;SHT31;69513;51.990;5.704;2023-07-08T11:54:13;30.5;38.0
80192;SHT31;69513;51.990;5.704;2023-07-08T11:57:00;30.6;37.1
80192;SHT31;69513;51.990;5.704;2023-07-08T11:59:33;30.7;37.4
80192;SHT31;69513;51.990;5.704;2023-07-08T12:02:14;30.8;37.9
80192;SHT31;69513;51.990;5.704;2023-07-08T12:05:13;31.0;38.1
80192;SHT31;69513;51.990;5.704;2023-07-08T12:07:46;31.1;37.6
80192;SHT31;69513;51.990;5.704;2023-07-08T12:10:31;31.2;37.8
80192;SHT31;69513;51.990;5.704;2023-07-08T12:13:14;31.4;37.1
80192;SHT31;69513;51.990;5.704;2023-07-08T12:15:46;31.5;37.8
80192;SHT31;69513;51.990;5.704;2023-07-08T12:18:22;31.6;36.9
80192;SHT31;69513;51.990;5.704;2023-07-08T12:20:57;31.7;36.9
80192;SHT31;69513;51.990;5.704;2023-07-08T12:23:32;31.9;35.8
80192;SHT31;69513;51.990;5.704;2023-07-08T12:26:01;32.0;36.2
80192;SHT31;69513;51.990;5.704;2023-07-08T12:28:40;32.1;36.6
80192;SHT31;69513;51.990;5.704;2023-07-08T12:31:17;32.2;36.1
80192;SHT31;69513;51.990;5.704;2023-07-08T12:33:49;32.3;35.0
80192;SHT31;69513;51.990;5.704;2023-07-08T12:36:21;32.5;34.3
80192;SHT31;69513;51.990;5.704;2023-07-08T12:38:56;32.6;34.6
80192;SHT31;69513;51.990;5.704;2023-07-08T12:41:32;32.7;34.7
80192;SHT31;69513;51.990;5.704;2023-07-08T12:44:05;32.8;35.8
80192;SHT31;69513;51.990;5.704;2023-07-08T12:46:39;32.9;36.7
80192;SHT31;69513;51.990;5.704;2023-07-08T12:49:10;33.0;35.0
80192;SHT31;69513;51.990;5.704;2023-07-08T12:51:45;33.1;34.0
80192;SHT31;69513;51.990;5.704;2023-07-08T12:54:15;33.2;32.6
80192;SHT31;69513;51.990;5.704;2023-07-08T12:56:47;33.4;33.6
80192;SHT31;69513;51.990;5.704;2023-07-08T12:59:21;33.5;33.9
80192;SHT31;69513;51.990;5.704;2023-07-08T13:01:56;33.6;32.8
80192;SHT31;69513;51.990;5.704;2023-07-08T13:04:28;33.7;32.8
80192;SHT31;69513;51.990;5.704;2023-07-08T13:07:04;33.7;32.3
80192;SHT31;69513;51.990;5.704;2023-07-08T13:09:44;33.8;32.8
80192;SHT31;69513;51.990;5.704;2023-07-08T13:12:21;33.9;32.4
80192;SHT31;69513;51.990;5.704;2023-07-08T13:14:56;34.0;32.0
80192;SHT31;69513;51.990;5.704;2023-07-08T13:17:35;34.2;32.0
80192;SHT31;69513;51.990;5.704;2023-07-08T13:20:14;34.3;31.2
80192;SHT31;69513;51.990;5.704;2023-07-08T13:22:54;34.4;31.7
80192;SHT31;69513;51.990;5.704;2023-07-08T13:25:29;34.5;31.0
80192;SHT31;69513;51.990;5.704;2023-07-08T13:28:02;34.8;31.5
80192;SHT31;69513;51.990;5.704;2023-07-08T13:30:33;35.1;31.5
80192;SHT31;69513;51.990;5.704;2023-07-08T13:33:03;35.4;31.5
80192;SHT31;69513;51.990;5.704;2023-07-08T13:35:39;35.7;30.7
80192;SHT31;69513;51.990;5.704;2023-07-08T13:38:17;36.0;30.3
80192;SHT31;69513;51.990;5.704;2023-07-08T13:40:51;36.3;29.9
80192;SHT31;69513;51.990;5.704;2023-07-08T13:43:28;36.5;29.5
80192;SHT31;69513;51.990;5.704;2023-07-08T13:45:59;36.8;29.0
80192;SHT31;69513;51.990;5.704;2023-07-08T13:48:36;37.0;29.4
80192;SHT31;69513;51.990;5.704;2023-07-08T13:51:16;37.3;28.5
80192;SHT31;69513;51.990;5.704;2023-07-08T13:53:48;37.4;29.4
80192;SHT31;69513;51.990;5.704;2023-07-08T13:56:24;37.5;28.7
80192;SHT31;69513;51.990;5.704;2023-07-08T13:59:03;37.7;27.2
80192;SHT31;69513;51.990;5.704;2023-07-08T14:01:37;37.8;28.8
80192;SHT31;69513;51.990;5.704;2023-07-08T14:04:13;37.8;28.2
80192;SHT31;69513;51.990;5.704;2023-07-08T14:06:47;37.9;27.8
80192;SHT31;69513;51.990;5.704;2023-07-08T14:09:20;38.0;28.9
80192;SHT31;69513;51.990;5.704;2023-07-08T14:11:53;38.0;28.5
80192;SHT31;69513;51.990;5.704;2023-07-08T14:14:26;38.1;27.9
80192;SHT31;69513;51.990;5.704;2023-07-08T14:16:58;38.2;28.9
80192;SHT31;69513;51.990;5.704;2023-07-08T14:19:30;38.3;28.9
80192;SHT31;69513;51.990;5.704;2023-07-08T14:22:20;38.4;28.6
80192;SHT31;69513;51.990;5.704;2023-07-08T14:24:53;38.5;27.9
80192;SHT31;69513;51.990;5.704;2023-07-08T14:27:25;38.6;28.3
80192;SHT31;69513;51.990;5.704;2023-07-08T14:29:55;38.6;28.3
80192;SHT31;69513;51.990;5.704;2023-07-08T14:32:27;38.7;28.7
80192;SHT31;69513;51.990;5.704;2023-07-08T14:35:12;38.6;27.9
80192;SHT31;69513;51.990;5.704;2023-07-08T14:37:49;38.5;28.1
80192;SHT31;69513;51.990;5.704;2023-07-08T14:40:26;38.5;27.8
80192;SHT31;69513;51.990;5.704;2023-07-08T14:43:03;38.4;27.2
80192;SHT31;69513;51.990;5.704;2023-07-08T14:45:40;38.2;28.3
80192;SHT31;69513;51.990;5.704;2023-07-08T14:48:17;38.1;27.5
80192;SHT31;69513;51.990;5.704;2023-07-08T14:50:49;37.9;27.3
80192;SHT31;69513;51.990;5.704;2023-07-08T14:53:25;37.8;28.2
80192;SHT31;69513;51.990;5.704;2023-07-08T14:55:58;37.7;27.1
80192;SHT31;69513;51.990;5.704;2023-07-08T14:58:31;37.6;28.1
80192;SHT31;69513;51.990;5.704;2023-07-08T15:01:11;37.6;28.7
80192;SHT31;69513;51.990;5.704;2023-07-08T15:03:45;37.6;28.8
80192;SHT31;69513;51.990;5.704;2023-07-08T15:06:20;37.6;28.6
80192;SHT31;69513;51.990;5.704;2023-07-08T15:08:51;37.6;28.8
80192;SHT31;69513;51.990;5.704;2023-07-08T15:11:22;37.6;28.0
80192;SHT31;69513;51.990;5.704;2023-07-08T15:13:54;37.5;28.5
80192;SHT31;69513;51.990;5.704;2023-07-08T15:16:25;37.4;30.0
80192;SHT31;69513;51.990;5.704;2023-07-08T15:18:59;37.4;30.2
80192;SHT31;69513;51.990;5.704;2023-07-08T15:21:31;37.5;31.1
80192;SHT31;69513;51.990;5.704;2023-07-08T15:24:02;37.7;31.1
80192;SHT31;69513;51.990;5.704;2023-07-08T15:26:35;38.0;29.8
80192;SHT31;69513;51.990;5.704;2023-07-08T15:29:14;38.1;29.8
80192;SHT31;69513;51.990;5.704;2023-07-08T15:31:45;38.2;27.8
80192;SHT31;69513;51.990;5.704;2023-07-08T15:34:17;38.2;28.8
80192;SHT31;69513;51.990;5.704;2023-07-08T15:36:49;38.1;28.3
80192;SHT31;69513;51.990;5.704;2023-07-08T15:39:20;37.9;27.6
80192;SHT31;69513;51.990;5.704;2023-07-08T15:41:53;37.7;29.6
80192;SHT31;69513;51.990;5.704;2023-07-08T15:44:26;37.5;29.6
80192;SHT31;69513;51.990;5.704;2023-07-08T15:46:56;37.3;30.0
80192;SHT31;69513;51.990;5.704;2023-07-08T15:49:25;37.1;30.6
80192;SHT31;69513;51.990;5.704;2023-07-08T15:51:57;36.9;30.5
80192;SHT31;69513;51.990;5.704;2023-07-08T15:54:27;36.7;30.6
80192;SHT31;69513;51.990;5.704;2023-07-08T15:56:58;36.6;31.6
80192;SHT31;69513;51.990;5.704;2023-07-08T15:59:34;36.4;32.0
80192;SHT31;69513;51.990;5.704;2023-07-08T16:02:19;36.3;33.1
80192;SHT31;69513;51.990;5.704;2023-07-08T16:04:51;36.2;33.7
80192;SHT31;69513;51.990;5.704;2023-07-08T16:07:21;36.0;34.4
80192;SHT31;69513;51.990;5.704;2023-07-08T16:09:51;35.9;35.3
80192;SHT31;69513;51.990;5.704;2023-07-08T16:12:24;35.7;35.3
80192;SHT31;69513;51.990;5.704;2023-07-08T16:14:56;35.6;35.8
80192;SHT31;69513;51.990;5.704;2023-07-08T16:17:25;35.4;35.9
80192;SHT31;69513;51.990;5.704;2023-07-08T16:19:55;35.3;36.5
80192;SHT31;69513;51.990;5.704;2023-07-08T16:22:25;35.2;36.7
80192;SHT31;69513;51.990;5.704;2023-07-08T16:24:56;35.1;37.5
80192;SHT31;69513;51.990;5.704;2023-07-08T16:27:26;35.0;37.5
80192;SHT31;69513;51.990;5.704;2023-07-08T16:29:57;34.9;38.4
80192;SHT31;69513;51.990;5.704;2023-07-08T16:32:29;34.9;39.1
80192;SHT31;69513;51.990;5.704;2023-07-08T16:34:58;34.8;38.2
80192;SHT31;69513;51.990;5.704;2023-07-08T16:37:30;34.7;39.0
80192;SHT31;69513;51.990;5.704;2023-07-08T16:39:59;34.7;38.9
80192;SHT31;69513;51.990;5.704;2023-07-08T16:42:33;34.6;39.0